sensor_id;sensor_type;location;lat;lon;timestamp;pressure;altitude;pressure_sealevel;temperature;humidity
66801;BME280;53703;50.326;19.122;2023-02-01T00:01:46;98022.88;;;16.75;45.58
66801;BME280;53703;50.326;19.122;2023-02-01T00:04:40;98019.38;;;16.70;45.38
66801;BME280;53703;50.326;19.122;2023-02-01T00:07:34;98024.63;;;16.69;45.63
66801;BME280;53703;50.326;19.122;2023-02-01T00:10:28;98016.24;;;16.75;45.58
66801;BME280;53703;50.326;19.122;2023-02-01T00:13:22;98017.64;;;16.74;45.48
66801;BME280;53703;50.326;19.122;2023-02-01T00:16:20;98008.94;;;16.72;45.48
66801;BME280;53703;50.326;19.122;2023-02-01T00:19:16;98008.67;;;16.67;45.45
66801;BME280;53703;50.326;19.122;2023-02-01T00:22:10;98009.20;;;16.69;45.77
66801;BME280;53703;50.326;19.122;2023-02-01T00:25:05;98007.19;;;16.71;45.78
66801;BME280;53703;50.326;19.122;2023-02-01T00:27:59;98001.76;;;16.71;45.79
66801;BME280;53703;50.326;19.122;2023-02-01T00:31:00;97992.09;;;16.68;45.79
66801;BME280;53703;50.326;19.122;2023-02-01T00:33:55;97994.88;;;16.70;45.34
66801;BME280;53703;50.326;19.122;2023-02-01T00:36:50;97994.73;;;16.70;45.64
66801;BME280;53703;50.326;19.122;2023-02-01T00:39:43;97996.91;;;16.69;45.75
66801;BME280;53703;50.326;19.122;2023-02-01T00:42:37;98004.02;;;16.70;45.60
66801;BME280;53703;50.326;19.122;2023-02-01T00:45:31;98011.52;;;16.74;45.56
66801;BME280;53703;50.326;19.122;2023-02-01T00:48:25;98022.73;;;16.76;45.62
66801;BME280;53703;50.326;19.122;2023-02-01T00:51:23;98050.55;;;16.77;45.62
66801;BME280;53703;50.326;19.122;2023-02-01T00:54:35;98056.19;;;16.72;45.57
66801;BME280;53703;50.326;19.122;2023-02-01T00:57:30;98072.69;;;16.74;45.65
66801;BME280;53703;50.326;19.122;2023-02-01T01:00:24;98091.03;;;16.74;45.65
66801;BME280;53703;50.326;19.122;2023-02-01T01:03:18;98103.30;;;16.74;45.64
66801;BME280;53703;50.326;19.122;2023-02-01T01:06:15;98086.84;;;16.70;45.88
66801;BME280;53703;50.326;19.122;2023-02-01T01:09:10;98077.91;;;16.69;45.53
66801;BME280;53703;50.326;19.122;2023-02-01T01:12:04;98077.48;;;16.74;45.61
66801;BME280;53703;50.326;19.122;2023-02-01T01:14:58;98047.27;;;16.68;45.35
66801;BME280;53703;50.326;19.122;2023-02-01T01:17:52;98051.59;;;16.71;45.77
66801;BME280;53703;50.326;19.122;2023-02-01T01:20:48;98054.77;;;16.76;45.85
66801;BME280;53703;50.326;19.122;2023-02-01T01:23:43;98061.34;;;16.77;45.82
66801;BME280;53703;50.326;19.122;2023-02-01T01:26:37;98054.25;;;16.77;45.48
66801;BME280;53703;50.326;19.122;2023-02-01T01:29:31;98054.29;;;16.72;45.42
66801;BME280;53703;50.326;19.122;2023-02-01T01:32:25;98059.01;;;16.68;45.20
66801;BME280;53703;50.326;19.122;2023-02-01T01:35:20;98055.15;;;16.59;45.46
66801;BME280;53703;50.326;19.122;2023-02-01T01:38:14;98058.09;;;16.60;45.66
66801;BME280;53703;50.326;19.122;2023-02-01T01:41:09;98067.80;;;16.61;45.32
66801;BME280;53703;50.326;19.122;2023-02-01T01:47:16;98063.71;;;16.61;45.37
66801;BME280;53703;50.326;19.122;2023-02-01T01:50:14;98060.48;;;16.61;45.67
66801;BME280;53703;50.326;19.122;2023-02-01T01:53:13;98056.45;;;16.58;45.38
66801;BME280;53703;50.326;19.122;2023-02-01T01:56:10;98055.87;;;16.59;45.36
66801;BME280;53703;50.326;19.122;2023-02-01T01:59:06;98054.52;;;16.56;45.32
66801;BME280;53703;50.326;19.122;2023-02-01T02:02:01;98056.79;;;16.59;45.32
66801;BME280;53703;50.326;19.122;2023-02-01T02:04:55;98065.55;;;16.62;45.26
66801;BME280;53703;50.326;19.122;2023-02-01T02:07:51;98066.54;;;16.61;45.26
66801;BME280;53703;50.326;19.122;2023-02-01T02:10:47;98067.61;;;16.60;45.09
66801;BME280;53703;50.326;19.122;2023-02-01T02:13:57;98069.64;;;16.60;45.06
66801;BME280;53703;50.326;19.122;2023-02-01T02:17:23;98072.75;;;16.61;45.15
66801;BME280;53703;50.326;19.122;2023-02-01T02:20:45;98075.11;;;16.61;45.39
66801;BME280;53703;50.326;19.122;2023-02-01T02:27:40;98076.24;;;16.68;45.12
66801;BME280;53703;50.326;19.122;2023-02-01T02:31:22;98070.66;;;16.69;45.53
66801;BME280;53703;50.326;19.122;2023-02-01T02:34:21;98075.19;;;16.61;45.16
66801;BME280;53703;50.326;19.122;2023-02-01T02:37:43;98081.58;;;16.65;45.27
66801;BME280;53703;50.326;19.122;2023-02-01T02:40:49;98077.42;;;16.62;45.74
66801;BME280;53703;50.326;19.122;2023-02-01T02:44:07;98074.98;;;16.59;45.38
66801;BME280;53703;50.326;19.122;2023-02-01T02:47:29;98079.53;;;16.61;45.78
66801;BME280;53703;50.326;19.122;2023-02-01T02:50:32;98094.70;;;16.61;45.12
66801;BME280;53703;50.326;19.122;2023-02-01T02:54:07;98092.03;;;16.58;45.15
66801;BME280;53703;50.326;19.122;2023-02-01T02:57:23;98093.83;;;16.61;45.48
66801;BME280;53703;50.326;19.122;2023-02-01T03:00:36;98097.23;;;16.58;44.95
66801;BME280;53703;50.326;19.122;2023-02-01T03:03:49;98098.10;;;16.58;45.22
66801;BME280;53703;50.326;19.122;2023-02-01T03:10:40;98096.27;;;16.52;45.00
66801;BME280;53703;50.326;19.122;2023-02-01T03:13:38;98102.86;;;16.56;45.14
66801;BME280;53703;50.326;19.122;2023-02-01T03:16:59;98101.08;;;16.55;45.31
66801;BME280;53703;50.326;19.122;2023-02-01T03:19:57;98103.52;;;16.55;45.10
66801;BME280;53703;50.326;19.122;2023-02-01T03:22:54;98102.44;;;16.53;45.34
66801;BME280;53703;50.326;19.122;2023-02-01T03:25:51;98103.77;;;16.49;44.95
66801;BME280;53703;50.326;19.122;2023-02-01T03:29:11;98101.25;;;16.46;45.21
66801;BME280;53703;50.326;19.122;2023-02-01T03:32:08;98093.45;;;16.49;45.53
66801;BME280;53703;50.326;19.122;2023-02-01T03:35:03;98099.30;;;16.47;45.21
66801;BME280;53703;50.326;19.122;2023-02-01T03:38:12;98107.29;;;16.48;45.30
66801;BME280;53703;50.326;19.122;2023-02-01T03:41:13;98108.69;;;16.51;45.53
66801;BME280;53703;50.326;19.122;2023-02-01T03:44:15;98108.76;;;16.47;45.04
66801;BME280;53703;50.326;19.122;2023-02-01T03:47:10;98104.38;;;16.48;45.17
66801;BME280;53703;50.326;19.122;2023-02-01T03:50:11;98095.33;;;16.48;45.23
66801;BME280;53703;50.326;19.122;2023-02-01T03:53:10;98097.08;;;16.52;45.36
66801;BME280;53703;50.326;19.122;2023-02-01T03:56:24;98096.13;;;16.49;45.15
66801;BME280;53703;50.326;19.122;2023-02-01T03:59:31;98091.21;;;16.47;45.17
66801;BME280;53703;50.326;19.122;2023-02-01T04:02:25;98092.18;;;16.48;45.37
66801;BME280;53703;50.326;19.122;2023-02-01T04:05:19;98093.95;;;16.53;45.25
66801;BME280;53703;50.326;19.122;2023-02-01T04:08:13;98083.70;;;16.52;45.13
66801;BME280;53703;50.326;19.122;2023-02-01T04:11:08;98090.71;;;16.49;45.35
66801;BME280;53703;50.326;19.122;2023-02-01T04:14:01;98088.39;;;16.51;45.44
66801;BME280;53703;50.326;19.122;2023-02-01T04:16:57;98086.29;;;16.52;45.41
66801;BME280;53703;50.326;19.122;2023-02-01T04:19:51;98088.23;;;16.48;45.07
66801;BME280;53703;50.326;19.122;2023-02-01T04:22:47;98092.08;;;16.47;45.30
66801;BME280;53703;50.326;19.122;2023-02-01T04:25:40;98096.40;;;16.44;45.18
66801;BME280;53703;50.326;19.122;2023-02-01T04:28:35;98088.39;;;16.42;45.13
66801;BME280;53703;50.326;19.122;2023-02-01T04:31:29;98093.21;;;16.37;45.06
66801;BME280;53703;50.326;19.122;2023-02-01T04:34:23;98094.30;;;16.37;45.26
66801;BME280;53703;50.326;19.122;2023-02-01T04:37:17;98096.08;;;16.38;45.13
66801;BME280;53703;50.326;19.122;2023-02-01T04:40:13;98094.48;;;16.37;45.20
66801;BME280;53703;50.326;19.122;2023-02-01T04:43:07;98099.84;;;16.37;45.35
66801;BME280;53703;50.326;19.122;2023-02-01T04:46:01;98096.06;;;16.34;45.15
66801;BME280;53703;50.326;19.122;2023-02-01T04:48:55;98099.48;;;16.37;44.87
66801;BME280;53703;50.326;19.122;2023-02-01T04:51:49;98101.80;;;16.34;45.12
66801;BME280;53703;50.326;19.122;2023-02-01T04:54:43;98098.85;;;16.30;44.91
66801;BME280;53703;50.326;19.122;2023-02-01T04:57:37;98094.18;;;16.29;45.39
66801;BME280;53703;50.326;19.122;2023-02-01T05:00:32;98092.83;;;16.29;44.90
66801;BME280;53703;50.326;19.122;2023-02-01T05:03:26;98091.77;;;16.27;45.07
66801;BME280;53703;50.326;19.122;2023-02-01T05:06:21;98092.55;;;16.33;45.07
66801;BME280;53703;50.326;19.122;2023-02-01T05:09:14;98089.95;;;16.32;45.52
66801;BME280;53703;50.326;19.122;2023-02-01T05:12:09;98093.38;;;16.37;45.70
66801;BME280;53703;50.326;19.122;2023-02-01T05:15:21;98088.52;;;16.38;45.38
66801;BME280;53703;50.326;19.122;2023-02-01T05:18:14;98090.62;;;16.34;45.53
66801;BME280;53703;50.326;19.122;2023-02-01T05:21:09;98084.20;;;16.32;45.37
66801;BME280;53703;50.326;19.122;2023-02-01T05:24:03;98079.78;;;16.29;45.37
66801;BME280;53703;50.326;19.122;2023-02-01T05:27:05;98079.68;;;16.31;45.50
66801;BME280;53703;50.326;19.122;2023-02-01T05:29:59;98076.45;;;16.31;45.32
66801;BME280;53703;50.326;19.122;2023-02-01T05:32:54;98078.33;;;16.28;45.14
66801;BME280;53703;50.326;19.122;2023-02-01T05:35:48;98079.50;;;16.24;45.32
66801;BME280;53703;50.326;19.122;2023-02-01T05:38:42;98078.13;;;16.29;45.28
66801;BME280;53703;50.326;19.122;2023-02-01T05:41:38;98075.54;;;16.23;45.13
66801;BME280;53703;50.326;19.122;2023-02-01T05:44:32;98077.33;;;16.23;45.32
66801;BME280;53703;50.326;19.122;2023-02-01T05:47:25;98074.02;;;16.22;45.06
66801;BME280;53703;50.326;19.122;2023-02-01T05:50:20;98082.94;;;16.20;45.06
66801;BME280;53703;50.326;19.122;2023-02-01T05:53:14;98082.61;;;16.20;45.28
66801;BME280;53703;50.326;19.122;2023-02-01T05:56:09;98072.23;;;16.20;45.32
66801;BME280;53703;50.326;19.122;2023-02-01T05:59:03;98074.34;;;16.23;45.19
66801;BME280;53703;50.326;19.122;2023-02-01T06:01:57;98069.42;;;16.24;45.22
66801;BME280;53703;50.326;19.122;2023-02-01T06:04:51;98070.23;;;16.19;45.10
66801;BME280;53703;50.326;19.122;2023-02-01T06:07:45;98073.02;;;16.20;45.16
66801;BME280;53703;50.326;19.122;2023-02-01T06:10:39;98071.13;;;16.17;45.18
66801;BME280;53703;50.326;19.122;2023-02-01T06:13:33;98078.88;;;16.15;45.08
66801;BME280;53703;50.326;19.122;2023-02-01T06:16:27;98077.98;;;16.14;44.99
66801;BME280;53703;50.326;19.122;2023-02-01T06:19:22;98080.38;;;16.13;45.03
66801;BME280;53703;50.326;19.122;2023-02-01T06:22:16;98085.25;;;16.10;45.20
66801;BME280;53703;50.326;19.122;2023-02-01T06:25:11;98084.52;;;16.17;45.32
66801;BME280;53703;50.326;19.122;2023-02-01T06:28:05;98085.77;;;16.14;45.14
66801;BME280;53703;50.326;19.122;2023-02-01T06:31:04;98089.42;;;16.16;45.32
66801;BME280;53703;50.326;19.122;2023-02-01T06:33:59;98089.06;;;16.20;45.23
66801;BME280;53703;50.326;19.122;2023-02-01T06:36:53;98090.73;;;16.12;45.18
66801;BME280;53703;50.326;19.122;2023-02-01T06:39:47;98093.55;;;16.11;45.04
66801;BME280;53703;50.326;19.122;2023-02-01T06:42:41;98096.39;;;16.14;45.26
66801;BME280;53703;50.326;19.122;2023-02-01T06:45:35;98097.56;;;16.15;45.18
66801;BME280;53703;50.326;19.122;2023-02-01T06:48:29;98097.23;;;16.14;45.32
66801;BME280;53703;50.326;19.122;2023-02-01T06:51:27;98093.56;;;16.15;45.25
66801;BME280;53703;50.326;19.122;2023-02-01T06:54:22;98089.73;;;16.13;45.05
66801;BME280;53703;50.326;19.122;2023-02-01T06:57:16;98090.02;;;16.09;44.99
66801;BME280;53703;50.326;19.122;2023-02-01T07:00:13;98085.41;;;16.10;45.23
66801;BME280;53703;50.326;19.122;2023-02-01T07:03:07;98083.23;;;16.11;45.22
66801;BME280;53703;50.326;19.122;2023-02-01T07:06:01;98075.68;;;16.05;45.11
66801;BME280;53703;50.326;19.122;2023-02-01T07:08:56;98075.83;;;16.02;45.13
66801;BME280;53703;50.326;19.122;2023-02-01T07:11:50;98077.55;;;16.02;45.41
66801;BME280;53703;50.326;19.122;2023-02-01T07:14:44;98075.02;;;16.01;45.09
66801;BME280;53703;50.326;19.122;2023-02-01T07:17:37;98077.74;;;16.00;45.13
66801;BME280;53703;50.326;19.122;2023-02-01T07:20:31;98081.53;;;15.98;45.10
66801;BME280;53703;50.326;19.122;2023-02-01T07:23:25;98085.09;;;15.99;45.04
66801;BME280;53703;50.326;19.122;2023-02-01T07:26:20;98083.24;;;16.00;45.17
66801;BME280;53703;50.326;19.122;2023-02-01T07:29:14;98081.88;;;16.02;45.28
66801;BME280;53703;50.326;19.122;2023-02-01T07:32:08;98084.84;;;16.01;45.12
66801;BME280;53703;50.326;19.122;2023-02-01T07:35:02;98082.77;;;15.98;45.33
66801;BME280;53703;50.326;19.122;2023-02-01T07:37:58;98082.80;;;15.99;45.35
66801;BME280;53703;50.326;19.122;2023-02-01T07:40:58;98082.89;;;15.96;45.14
66801;BME280;53703;50.326;19.122;2023-02-01T07:43:55;98086.86;;;15.97;45.36
66801;BME280;53703;50.326;19.122;2023-02-01T07:46:49;98088.91;;;15.98;45.56
66801;BME280;53703;50.326;19.122;2023-02-01T07:49:42;98086.80;;;15.98;45.86
66801;BME280;53703;50.326;19.122;2023-02-01T07:52:36;98088.16;;;15.99;45.36
66801;BME280;53703;50.326;19.122;2023-02-01T07:55:30;98087.29;;;16.04;46.00
66801;BME280;53703;50.326;19.122;2023-02-01T07:58:26;98088.26;;;16.02;45.40
66801;BME280;53703;50.326;19.122;2023-02-01T08:01:22;98087.20;;;15.96;45.57
66801;BME280;53703;50.326;19.122;2023-02-01T08:04:17;98081.05;;;16.03;45.71
66801;BME280;53703;50.326;19.122;2023-02-01T08:07:11;98081.85;;;16.15;45.73
66801;BME280;53703;50.326;19.122;2023-02-01T08:10:07;98079.51;;;16.12;45.73
66801;BME280;53703;50.326;19.122;2023-02-01T08:13:03;98077.14;;;16.09;45.99
66801;BME280;53703;50.326;19.122;2023-02-01T08:16:03;98072.49;;;16.04;46.34
66801;BME280;53703;50.326;19.122;2023-02-01T08:18:57;98075.64;;;16.09;45.99
66801;BME280;53703;50.326;19.122;2023-02-01T08:21:51;98075.06;;;16.06;46.59
66801;BME280;53703;50.326;19.122;2023-02-01T08:24:47;98077.57;;;16.11;46.93
66801;BME280;53703;50.326;19.122;2023-02-01T08:27:41;98078.52;;;16.08;47.14
66801;BME280;53703;50.326;19.122;2023-02-01T08:30:35;98070.41;;;16.05;46.50
66801;BME280;53703;50.326;19.122;2023-02-01T08:33:20;98073.98;;;16.10;46.47
66801;BME280;53703;50.326;19.122;2023-02-01T08:36:14;98074.70;;;16.06;46.16
66801;BME280;53703;50.326;19.122;2023-02-01T08:39:08;98064.30;;;16.06;46.47
66801;BME280;53703;50.326;19.122;2023-02-01T08:42:02;98067.30;;;16.01;48.22
66801;BME280;53703;50.326;19.122;2023-02-01T08:45:14;98066.68;;;16.07;48.59
66801;BME280;53703;50.326;19.122;2023-02-01T08:48:08;98071.77;;;16.01;48.53
66801;BME280;53703;50.326;19.122;2023-02-01T08:51:05;98068.14;;;15.97;48.16
66801;BME280;53703;50.326;19.122;2023-02-01T08:53:59;98059.85;;;16.01;47.87
66801;BME280;53703;50.326;19.122;2023-02-01T08:56:53;98067.06;;;16.09;47.89
66801;BME280;53703;50.326;19.122;2023-02-01T08:59:48;98063.85;;;16.04;47.54
66801;BME280;53703;50.326;19.122;2023-02-01T09:02:25;98065.54;;;16.00;47.52
66801;BME280;53703;50.326;19.122;2023-02-01T09:05:19;98064.98;;;16.05;47.46
66801;BME280;53703;50.326;19.122;2023-02-01T09:08:15;98063.48;;;16.08;47.80
66801;BME280;53703;50.326;19.122;2023-02-01T09:11:13;98068.07;;;16.06;47.86
66801;BME280;53703;50.326;19.122;2023-02-01T09:14:07;98063.05;;;16.03;47.46
66801;BME280;53703;50.326;19.122;2023-02-01T09:17:01;98066.06;;;16.07;48.03
66801;BME280;53703;50.326;19.122;2023-02-01T09:19:55;98061.13;;;16.00;47.16
66801;BME280;53703;50.326;19.122;2023-02-01T09:22:49;98061.94;;;15.92;46.90
66801;BME280;53703;50.326;19.122;2023-02-01T09:25:43;98061.70;;;15.91;47.88
66801;BME280;53703;50.326;19.122;2023-02-01T09:28:37;98056.55;;;15.86;47.36
66801;BME280;53703;50.326;19.122;2023-02-01T09:31:30;98054.74;;;15.78;47.24
66801;BME280;53703;50.326;19.122;2023-02-01T09:34:24;98051.81;;;15.71;46.80
66801;BME280;53703;50.326;19.122;2023-02-01T09:37:19;98049.11;;;15.70;47.00
66801;BME280;53703;50.326;19.122;2023-02-01T09:40:17;98054.55;;;15.52;46.92
66801;BME280;53703;50.326;19.122;2023-02-01T09:43:27;98049.79;;;15.34;47.35
66801;BME280;53703;50.326;19.122;2023-02-01T09:46:26;98049.80;;;15.83;46.52
66801;BME280;53703;50.326;19.122;2023-02-01T09:49:45;98045.46;;;16.02;46.19
66801;BME280;53703;50.326;19.122;2023-02-01T09:52:50;98045.36;;;16.09;46.21
66801;BME280;53703;50.326;19.122;2023-02-01T09:55:49;98044.88;;;16.09;47.41
66801;BME280;53703;50.326;19.122;2023-02-01T09:58:47;98046.02;;;16.05;47.99
66801;BME280;53703;50.326;19.122;2023-02-01T10:01:42;98035.72;;;16.08;47.89
66801;BME280;53703;50.326;19.122;2023-02-01T10:04:37;98038.84;;;16.12;46.87
66801;BME280;53703;50.326;19.122;2023-02-01T10:07:40;98033.85;;;16.08;47.40
66801;BME280;53703;50.326;19.122;2023-02-01T10:10:43;98030.91;;;16.13;47.34
66801;BME280;53703;50.326;19.122;2023-02-01T10:13:56;98032.23;;;16.28;46.56
66801;BME280;53703;50.326;19.122;2023-02-01T10:17:09;98030.39;;;16.41;46.65
66801;BME280;53703;50.326;19.122;2023-02-01T10:20:15;98026.20;;;16.54;46.59
66801;BME280;53703;50.326;19.122;2023-02-01T10:23:14;98027.88;;;16.57;46.50
66801;BME280;53703;50.326;19.122;2023-02-01T10:26:29;98027.75;;;16.62;46.87
66801;BME280;53703;50.326;19.122;2023-02-01T10:29:33;98024.73;;;16.64;47.03
66801;BME280;53703;50.326;19.122;2023-02-01T10:32:33;98022.70;;;16.65;47.29
66801;BME280;53703;50.326;19.122;2023-02-01T10:35:33;98022.11;;;16.70;47.49
66801;BME280;53703;50.326;19.122;2023-02-01T10:38:31;98022.06;;;16.74;48.25
66801;BME280;53703;50.326;19.122;2023-02-01T10:41:31;98015.69;;;16.81;48.38
66801;BME280;53703;50.326;19.122;2023-02-01T10:44:29;98012.17;;;16.82;49.67
66801;BME280;53703;50.326;19.122;2023-02-01T10:47:23;98013.88;;;16.84;49.75
66801;BME280;53703;50.326;19.122;2023-02-01T10:50:29;98009.48;;;16.91;49.68
66801;BME280;53703;50.326;19.122;2023-02-01T10:53:33;98009.34;;;16.93;49.82
66801;BME280;53703;50.326;19.122;2023-02-01T10:56:31;98008.00;;;16.92;50.33
66801;BME280;53703;50.326;19.122;2023-02-01T10:59:27;98009.59;;;16.96;50.18
66801;BME280;53703;50.326;19.122;2023-02-01T11:02:29;98011.05;;;16.92;50.76
66801;BME280;53703;50.326;19.122;2023-02-01T11:05:23;98010.50;;;16.95;51.20
66801;BME280;53703;50.326;19.122;2023-02-01T11:08:19;98012.98;;;16.96;51.23
66801;BME280;53703;50.326;19.122;2023-02-01T11:11:14;98012.49;;;16.99;51.29
66801;BME280;53703;50.326;19.122;2023-02-01T11:14:18;98012.08;;;16.94;50.46
66801;BME280;53703;50.326;19.122;2023-02-01T11:17:26;98013.26;;;16.92;50.07
66801;BME280;53703;50.326;19.122;2023-02-01T11:20:15;98011.40;;;16.96;50.39
66801;BME280;53703;50.326;19.122;2023-02-01T11:23:17;98006.60;;;16.93;50.34
66801;BME280;53703;50.326;19.122;2023-02-01T11:26:21;98005.86;;;17.02;49.54
66801;BME280;53703;50.326;19.122;2023-02-01T11:29:18;98001.83;;;17.04;49.86
66801;BME280;53703;50.326;19.122;2023-02-01T11:32:24;97999.05;;;17.06;50.51
66801;BME280;53703;50.326;19.122;2023-02-01T11:35:20;97995.86;;;17.05;50.76
66801;BME280;53703;50.326;19.122;2023-02-01T11:38:26;97993.92;;;17.13;50.56
66801;BME280;53703;50.326;19.122;2023-02-01T11:41:20;97986.56;;;17.11;50.70
66801;BME280;53703;50.326;19.122;2023-02-01T11:44:26;97981.58;;;17.18;50.94
66801;BME280;53703;50.326;19.122;2023-02-01T11:47:26;97976.71;;;17.15;50.94
66801;BME280;53703;50.326;19.122;2023-02-01T11:50:44;97966.05;;;17.03;52.36
66801;BME280;53703;50.326;19.122;2023-02-01T11:53:36;97963.89;;;17.09;50.50
66801;BME280;53703;50.326;19.122;2023-02-01T11:56:37;97956.02;;;16.98;50.58
66801;BME280;53703;50.326;19.122;2023-02-01T12:00:02;97954.88;;;16.97;51.64
66801;BME280;53703;50.326;19.122;2023-02-01T12:03:19;97950.64;;;16.97;51.70
66801;BME280;53703;50.326;19.122;2023-02-01T12:06:28;97949.39;;;16.91;51.66
66801;BME280;53703;50.326;19.122;2023-02-01T12:09:43;97946.52;;;16.96;51.10
66801;BME280;53703;50.326;19.122;2023-02-01T12:12:48;97943.63;;;17.01;51.05
66801;BME280;53703;50.326;19.122;2023-02-01T12:15:50;97937.70;;;16.93;51.58
66801;BME280;53703;50.326;19.122;2023-02-01T12:19:21;97932.02;;;16.92;51.58
66801;BME280;53703;50.326;19.122;2023-02-01T12:22:13;97926.88;;;17.05;51.03
66801;BME280;53703;50.326;19.122;2023-02-01T12:25:29;97923.84;;;16.97;51.17
66801;BME280;53703;50.326;19.122;2023-02-01T12:29:07;97913.70;;;16.94;51.04
66801;BME280;53703;50.326;19.122;2023-02-01T12:32:13;97918.18;;;16.94;51.57
66801;BME280;53703;50.326;19.122;2023-02-01T12:35:27;97919.37;;;16.94;51.42
66801;BME280;53703;50.326;19.122;2023-02-01T12:38:48;97916.66;;;16.92;53.20
66801;BME280;53703;50.326;19.122;2023-02-01T12:42:02;97915.80;;;16.93;52.07
66801;BME280;53703;50.326;19.122;2023-02-01T12:45:02;97926.90;;;17.00;51.63
66801;BME280;53703;50.326;19.122;2023-02-01T12:48:02;97927.71;;;16.90;52.40
66801;BME280;53703;50.326;19.122;2023-02-01T12:51:03;97923.17;;;16.85;51.76
66801;BME280;53703;50.326;19.122;2023-02-01T12:54:02;97916.23;;;16.91;52.38
66801;BME280;53703;50.326;19.122;2023-02-01T12:57:04;97910.69;;;16.86;52.18
66801;BME280;53703;50.326;19.122;2023-02-01T13:00:13;97901.15;;;16.79;51.46
66801;BME280;53703;50.326;19.122;2023-02-01T13:03:13;97898.73;;;16.72;52.28
66801;BME280;53703;50.326;19.122;2023-02-01T13:06:15;97891.02;;;16.93;51.03
66801;BME280;53703;50.326;19.122;2023-02-01T13:09:18;97887.10;;;16.99;50.85
66801;BME280;53703;50.326;19.122;2023-02-01T13:12:18;97883.81;;;17.06;50.45
66801;BME280;53703;50.326;19.122;2023-02-01T13:15:19;97880.36;;;16.96;51.14
66801;BME280;53703;50.326;19.122;2023-02-01T13:18:19;97875.73;;;17.01;50.46
66801;BME280;53703;50.326;19.122;2023-02-01T13:21:20;97870.95;;;16.91;49.93
66801;BME280;53703;50.326;19.122;2023-02-01T13:24:30;97868.08;;;16.92;51.27
66801;BME280;53703;50.326;19.122;2023-02-01T13:27:28;97876.52;;;16.97;51.43
66801;BME280;53703;50.326;19.122;2023-02-01T13:30:26;97877.64;;;16.98;50.78
66801;BME280;53703;50.326;19.122;2023-02-01T13:33:42;97875.16;;;16.81;52.28
66801;BME280;53703;50.326;19.122;2023-02-01T13:37:01;97869.98;;;16.78;52.90
66801;BME280;53703;50.326;19.122;2023-02-01T13:40:21;97872.73;;;16.97;52.71
66801;BME280;53703;50.326;19.122;2023-02-01T13:43:44;97868.20;;;16.91;50.81
66801;BME280;53703;50.326;19.122;2023-02-01T13:46:48;97870.80;;;16.98;52.63
66801;BME280;53703;50.326;19.122;2023-02-01T13:49:45;97866.89;;;16.99;52.31
66801;BME280;53703;50.326;19.122;2023-02-01T13:52:44;97868.38;;;17.03;51.49
66801;BME280;53703;50.326;19.122;2023-02-01T13:55:39;97872.44;;;16.93;52.12
66801;BME280;53703;50.326;19.122;2023-02-01T13:58:37;97868.74;;;16.91;51.42
66801;BME280;53703;50.326;19.122;2023-02-01T14:01:48;97875.07;;;16.96;52.36
66801;BME280;53703;50.326;19.122;2023-02-01T14:04:52;97887.77;;;16.97;51.74
66801;BME280;53703;50.326;19.122;2023-02-01T14:08:13;97892.59;;;16.87;51.87
66801;BME280;53703;50.326;19.122;2023-02-01T14:11:08;97903.73;;;16.81;52.27
66801;BME280;53703;50.326;19.122;2023-02-01T14:14:49;97893.54;;;16.83;50.79
66801;BME280;53703;50.326;19.122;2023-02-01T14:17:43;97889.52;;;16.58;49.80
66801;BME280;53703;50.326;19.122;2023-02-01T14:20:46;97890.19;;;16.56;49.91
66801;BME280;53703;50.326;19.122;2023-02-01T14:23:47;97887.45;;;16.53;50.38
66801;BME280;53703;50.326;19.122;2023-02-01T14:26:49;97891.77;;;16.52;50.59
66801;BME280;53703;50.326;19.122;2023-02-01T14:30:07;97891.21;;;16.49;50.77
66801;BME280;53703;50.326;19.122;2023-02-01T14:33:20;97887.83;;;16.49;50.07
66801;BME280;53703;50.326;19.122;2023-02-01T14:36:16;97890.48;;;16.47;50.30
66801;BME280;53703;50.326;19.122;2023-02-01T14:39:26;97891.05;;;16.66;50.85
66801;BME280;53703;50.326;19.122;2023-02-01T14:42:27;97892.06;;;16.73;50.40
66801;BME280;53703;50.326;19.122;2023-02-01T14:45:52;97891.15;;;16.74;50.35
66801;BME280;53703;50.326;19.122;2023-02-01T14:48:48;97885.74;;;16.65;50.27
66801;BME280;53703;50.326;19.122;2023-02-01T14:51:44;97885.70;;;16.74;50.11
66801;BME280;53703;50.326;19.122;2023-02-01T14:54:40;97886.77;;;16.62;49.54
66801;BME280;53703;50.326;19.122;2023-02-01T14:57:37;97887.88;;;16.73;49.74
66801;BME280;53703;50.326;19.122;2023-02-01T15:00:34;97896.86;;;16.62;49.80
66801;BME280;53703;50.326;19.122;2023-02-01T15:03:45;97892.81;;;16.75;49.52
66801;BME280;53703;50.326;19.122;2023-02-01T15:06:43;97895.23;;;16.63;49.45
66801;BME280;53703;50.326;19.122;2023-02-01T15:09:48;97895.98;;;16.62;49.39
66801;BME280;53703;50.326;19.122;2023-02-01T15:12:44;97897.52;;;16.60;49.49
66801;BME280;53703;50.326;19.122;2023-02-01T15:15:41;97904.60;;;16.63;49.12
66801;BME280;53703;50.326;19.122;2023-02-01T15:18:35;97909.80;;;16.60;49.81
66801;BME280;53703;50.326;19.122;2023-02-01T15:21:29;97906.55;;;16.60;49.84
66801;BME280;53703;50.326;19.122;2023-02-01T15:24:26;97907.65;;;16.59;49.59
66801;BME280;53703;50.326;19.122;2023-02-01T15:27:21;97909.54;;;16.73;49.27
66801;BME280;53703;50.326;19.122;2023-02-01T15:30:21;97907.71;;;16.72;49.03
66801;BME280;53703;50.326;19.122;2023-02-01T15:33:19;97911.28;;;16.77;49.08
66801;BME280;53703;50.326;19.122;2023-02-01T15:36:19;97916.27;;;16.82;48.60
66801;BME280;53703;50.326;19.122;2023-02-01T15:39:23;97912.08;;;16.81;48.60
66801;BME280;53703;50.326;19.122;2023-02-01T15:42:20;97911.64;;;16.93;48.62
66801;BME280;53703;50.326;19.122;2023-02-01T15:45:21;97913.63;;;17.08;47.29
66801;BME280;53703;50.326;19.122;2023-02-01T15:48:21;97920.07;;;17.14;46.75
66801;BME280;53703;50.326;19.122;2023-02-01T15:51:20;97922.80;;;17.20;47.32